Time,TemperatureF,DewpointF,PressureIn,WindDirection,WindDirectionDegrees,WindSpeedMPH,WindSpeedGustMPH,Humidity,HourlyPrecipIn,Conditions,Clouds,dailyrainin,SoftwareType,DateUTC
2013-03-29 00:00:00,34.8,31.0,30.01,WNW,298,1.0,1.0,86,0.00,,,0.00,Wunderground v.1.15,2013-03-29 04:00:00,
2013-03-29 00:01:00,34.8,31.0,30.01,NW,311,1.0,1.0,86,0.00,,,0.00,Wunderground v.1.15,2013-03-29 04:01:00,
2013-03-29 00:02:00,34.9,31.1,30.01,WNW,290,2.0,2.0,86,0.00,,,0.00,Wunderground v.1.15,2013-03-29 04:02:00,
2013-03-29 00:05:00,35.1,31.0,30.01,NW,315,2.0,3.0,85,0.00,,,0.00,Wunderground v.1.15,2013-03-29 04:05:00,
2013-03-29 00:10:00,35.3,31.2,30.01,WNW,290,1.0,2.0,85,0.00,,,0.00,Wunderground v.1.15,2013-03-29 04:10:00,
2013-03-29 00:16:00,35.4,31.0,30.01,NW,319,2.0,5.0,84,0.00,,,0.00,Wunderground v.1.15,2013-03-29 04:16:00,
2013-03-29 00:21:00,35.3,30.9,30.01,WSW,253,0.0,2.0,84,0.00,,,0.00,Wunderground v.1.15,2013-03-29 04:21:00,
2013-03-29 00:26:00,35.1,31.0,30.01,West,276,0.0,2.0,85,0.00,,,0.00,Wunderground v.1.15,2013-03-29 04:26:00,
2013-03-29 00:32:00,34.7,30.7,30.01,WSW,246,0.0,0.0,85,0.00,,,0.00,Wunderground v.1.15,2013-03-29 04:32:00,
2013-03-29 00:37:00,34.5,30.5,30.01,NW,322,1.0,1.0,85,0.00,,,0.00,Wunderground v.1.15,2013-03-29 04:37:00,
2013-03-29 00:42:00,34.4,30.6,30.02,WSW,257,0.0,0.0,86,0.00,,,0.00,Wunderground v.1.15,2013-03-29 04:42:00,
2013-03-29 00:47:00,34.2,30.4,30.02,West,270,0.0,0.0,86,0.00,,,0.00,Wunderground v.1.15,2013-03-29 04:47:00,
2013-03-29 00:53:00,33.8,30.1,30.02,West,281,0.0,0.0,86,0.00,,,0.00,Wunderground v.1.15,2013-03-29 04:53:00,
2013-03-29 00:59:00,32.9,29.5,30.02,ENE,74,1.0,1.0,87,0.00,,,0.00,Wunderground v.1.15,2013-03-29 04:59:00,
2013-03-29 01:04:00,32.9,29.7,30.02,East,86,0.0,2.0,88,0.00,,,0.00,Wunderground v.1.15,2013-03-29 05:04:00,
2013-03-29 01:10:00,32.4,29.2,30.02,East,86,0.0,1.0,88,0.00,,,0.00,Wunderground v.1.15,2013-03-29 05:10:00,
2013-03-29 01:16:00,31.8,28.9,30.02,East,86,0.0,1.0,89,0.00,,,0.00,Wunderground v.1.15,2013-03-29 05:16:00,
2013-03-29 01:22:00,31.6,29.0,30.02,East,86,0.0,0.0,90,0.00,,,0.00,Wunderground v.1.15,2013-03-29 05:22:00,
2013-03-29 01:27:00,31.4,28.8,30.02,East,86,0.0,0.0,90,0.00,,,0.00,Wunderground v.1.15,2013-03-29 05:27:00,
2013-03-29 01:32:00,31.4,29.1,30.02,East,86,0.0,0.0,91,0.00,,,0.00,Wunderground v.1.15,2013-03-29 05:32:00,
2013-03-29 01:38:00,31.6,29.5,30.02,NW,318,0.0,0.0,92,0.00,,,0.00,Wunderground v.1.15,2013-03-29 05:38:00,
2013-03-29 01:44:00,32.1,29.8,30.01,West,267,1.0,1.0,91,0.00,,,0.00,Wunderground v.1.15,2013-03-29 05:44:00,
2013-03-29 01:50:00,31.9,29.3,30.01,West,264,1.0,1.0,90,0.00,,,0.00,Wunderground v.1.15,2013-03-29 05:50:00,
2013-03-29 01:55:00,31.9,29.3,30.01,WSW,249,1.0,2.0,90,0.00,,,0.00,Wunderground v.1.15,2013-03-29 05:55:00,
2013-03-29 02:00:00,31.8,29.2,30.01,WSW,251,1.0,1.0,90,0.00,,,0.00,Wunderground v.1.15,2013-03-29 06:00:00,
2013-03-29 02:05:00,31.6,28.7,30.02,WSW,252,0.0,1.0,89,0.00,,,0.00,Wunderground v.1.15,2013-03-29 06:05:00,
2013-03-29 02:10:00,31.3,28.7,30.01,West,281,0.0,1.0,90,0.00,,,0.00,Wunderground v.1.15,2013-03-29 06:10:00,
2013-03-29 02:15:00,31.2,28.6,30.01,West,280,0.0,1.0,90,0.00,,,0.00,Wunderground v.1.15,2013-03-29 06:15:00,
2013-03-29 02:20:00,30.9,28.6,30.01,West,281,0.0,0.0,91,0.00,,,0.00,Wunderground v.1.15,2013-03-29 06:20:00,
2013-03-29 02:25:00,30.8,28.5,30.01,West,281,0.0,1.0,91,0.00,,,0.00,Wunderground v.1.15,2013-03-29 06:25:00,
2013-03-29 02:30:00,30.8,28.8,30.01,ENE,63,0.0,2.0,92,0.00,,,0.00,Wunderground v.1.15,2013-03-29 06:30:00,
2013-03-29 02:35:00,31.0,28.9,30.01,ENE,63,0.0,2.0,92,0.00,,,0.00,Wunderground v.1.15,2013-03-29 06:35:00,
2013-03-29 02:40:00,31.2,28.9,30.01,ENE,68,0.0,0.0,91,0.00,,,0.00,Wunderground v.1.15,2013-03-29 06:40:00,
2013-03-29 02:45:00,30.8,28.5,30.01,ENE,68,0.0,0.0,91,0.00,,,0.00,Wunderground v.1.15,2013-03-29 06:45:00,
2013-03-29 02:50:00,30.3,28.0,30.01,ENE,68,0.0,0.0,91,0.00,,,0.00,Wunderground v.1.15,2013-03-29 06:50:00,
2013-03-29 02:55:00,30.0,28.0,30.01,ENE,68,0.0,0.0,92,0.00,,,0.00,Wunderground v.1.15,2013-03-29 06:55:00,
2013-03-29 03:00:00,29.6,27.6,30.01,ENE,68,0.0,0.0,92,0.00,,,0.00,Wunderground v.1.15,2013-03-29 07:00:00,
2013-03-29 03:05:00,29.4,27.4,30.01,ENE,68,0.0,0.0,92,0.00,,,0.00,Wunderground v.1.15,2013-03-29 07:05:00,
2013-03-29 03:10:00,29.4,27.6,30.01,ENE,68,0.0,0.0,93,0.00,,,0.00,Wunderground v.1.15,2013-03-29 07:10:00,
2013-03-29 03:15:00,29.3,27.5,30.01,ENE,68,0.0,0.0,93,0.00,,,0.00,Wunderground v.1.15,2013-03-29 07:15:00,
2013-03-29 03:20:00,29.0,27.2,30.01,ENE,68,0.0,0.0,93,0.00,,,0.00,Wunderground v.1.15,2013-03-29 07:20:00,
2013-03-29 03:26:00,28.9,27.1,30.01,ENE,68,0.0,0.0,93,0.00,,,0.00,Wunderground v.1.15,2013-03-29 07:26:00,
2013-03-29 03:31:00,28.7,26.9,30.01,ENE,68,0.0,0.0,93,0.00,,,0.00,Wunderground v.1.15,2013-03-29 07:31:00,
2013-03-29 03:36:00,28.6,26.8,30.01,ENE,68,0.0,0.0,93,0.00,,,0.00,Wunderground v.1.15,2013-03-29 07:36:00,
2013-03-29 03:41:00,28.6,27.1,30.01,ENE,68,0.0,0.0,94,0.00,,,0.00,Wunderground v.1.15,2013-03-29 07:41:00,
2013-03-29 03:46:00,28.6,27.1,30.01,ENE,68,0.0,0.0,94,0.00,,,0.00,Wunderground v.1.15,2013-03-29 07:46:00,
2013-03-29 03:51:00,28.6,27.1,30.01,ENE,68,0.0,0.0,94,0.00,,,0.00,Wunderground v.1.15,2013-03-29 07:51:00,
2013-03-29 03:56:00,28.7,27.2,30.01,ENE,68,0.0,0.0,94,0.00,,,0.00,Wunderground v.1.15,2013-03-29 07:56:00,
2013-03-29 04:01:00,28.8,27.3,30.01,ENE,68,0.0,0.0,94,0.00,,,0.00,Wunderground v.1.15,2013-03-29 08:01:00,
2013-03-29 04:06:00,28.9,27.4,30.01,ENE,68,0.0,0.0,94,0.00,,,0.00,Wunderground v.1.15,2013-03-29 08:06:00,
2013-03-29 04:11:00,29.0,27.7,30.02,ENE,68,0.0,0.0,95,0.00,,,0.00,Wunderground v.1.15,2013-03-29 08:11:00,
2013-03-29 04:16:00,29.2,27.9,30.01,ENE,68,0.0,0.0,95,0.00,,,0.00,Wunderground v.1.15,2013-03-29 08:16:00,
2013-03-29 04:21:00,28.9,27.4,30.01,ENE,68,0.0,0.0,94,0.00,,,0.00,Wunderground v.1.15,2013-03-29 08:21:00,
2013-03-29 04:26:00,28.8,27.3,30.01,ENE,75,0.0,0.0,94,0.00,,,0.00,Wunderground v.1.15,2013-03-29 08:26:00,
2013-03-29 04:31:00,28.6,27.1,30.01,ENE,74,0.0,0.0,94,0.00,,,0.00,Wunderground v.1.15,2013-03-29 08:31:00,
2013-03-29 04:37:00,28.5,27.0,30.01,East,89,0.0,0.0,94,0.00,,,0.00,Wunderground v.1.15,2013-03-29 08:37:00,
2013-03-29 04:42:00,28.5,27.3,30.01,ENE,67,0.0,0.0,95,0.00,,,0.00,Wunderground v.1.15,2013-03-29 08:42:00,
2013-03-29 04:47:00,28.3,27.1,30.01,ENE,66,0.0,0.0,95,0.00,,,0.00,Wunderground v.1.15,2013-03-29 08:47:00,
2013-03-29 04:52:00,28.1,26.6,30.01,ENE,67,0.0,0.0,94,0.00,,,0.00,Wunderground v.1.15,2013-03-29 08:52:00,
2013-03-29 04:57:00,28.0,26.8,30.01,ENE,67,0.0,0.0,95,0.00,,,0.00,Wunderground v.1.15,2013-03-29 08:57:00,
2013-03-29 05:02:00,27.9,26.7,30.01,ENE,66,0.0,0.0,95,0.00,,,0.00,Wunderground v.1.15,2013-03-29 09:02:00,
2013-03-29 05:07:00,27.7,26.5,30.01,ENE,67,0.0,0.0,95,0.00,,,0.00,Wunderground v.1.15,2013-03-29 09:07:00,
2013-03-29 05:12:00,27.5,26.3,30.01,ENE,67,0.0,0.0,95,0.00,,,0.00,Wunderground v.1.15,2013-03-29 09:12:00,
2013-03-29 05:18:00,27.2,26.0,30.01,ENE,67,0.0,0.0,95,0.00,,,0.00,Wunderground v.1.15,2013-03-29 09:18:00,
2013-03-29 05:23:00,26.9,25.7,30.01,ENE,66,0.0,0.0,95,0.00,,,0.00,Wunderground v.1.15,2013-03-29 09:23:00,
2013-03-29 05:28:00,26.8,25.6,30.01,ENE,66,0.0,0.0,95,0.00,,,0.00,Wunderground v.1.15,2013-03-29 09:28:00,
2013-03-29 05:33:00,26.5,25.3,30.02,ENE,66,0.0,0.0,95,0.00,,,0.00,Wunderground v.1.15,2013-03-29 09:33:00,
2013-03-29 05:38:00,26.6,25.4,30.02,ENE,66,0.0,0.0,95,0.00,,,0.00,Wunderground v.1.15,2013-03-29 09:38:00,
2013-03-29 05:44:00,27.0,25.8,30.02,ENE,67,0.0,0.0,95,0.00,,,0.00,Wunderground v.1.15,2013-03-29 09:44:00,
2013-03-29 05:49:00,27.1,25.9,30.02,ENE,66,0.0,0.0,95,0.00,,,0.00,Wunderground v.1.15,2013-03-29 09:49:00,
2013-03-29 05:54:00,27.5,26.5,30.02,ENE,67,0.0,0.0,96,0.00,,,0.00,Wunderground v.1.15,2013-03-29 09:54:00,
2013-03-29 05:59:00,27.8,26.8,30.02,ENE,67,0.0,0.0,96,0.00,,,0.00,Wunderground v.1.15,2013-03-29 09:59:00,
2013-03-29 06:04:00,28.0,27.0,30.02,ENE,64,0.0,0.0,96,0.00,,,0.00,Wunderground v.1.15,2013-03-29 10:04:00,
2013-03-29 06:09:00,28.6,27.6,30.02,ENE,64,0.0,0.0,96,0.00,,,0.00,Wunderground v.1.15,2013-03-29 10:09:00,
2013-03-29 06:14:00,29.0,28.0,30.02,NNW,347,0.0,0.0,96,0.00,,,0.00,Wunderground v.1.15,2013-03-29 10:14:00,
2013-03-29 06:19:00,29.5,28.5,30.02,ENE,68,0.0,0.0,96,0.00,,,0.00,Wunderground v.1.15,2013-03-29 10:19:00,
2013-03-29 06:24:00,30.0,29.0,30.02,North,349,2.0,3.0,96,0.00,,,0.00,Wunderground v.1.15,2013-03-29 10:24:00,
2013-03-29 06:29:00,30.4,29.4,30.02,NNW,336,0.0,1.0,96,0.00,,,0.00,Wunderground v.1.15,2013-03-29 10:29:00,
2013-03-29 06:34:00,30.6,29.6,30.02,NNW,338,1.0,1.0,96,0.00,,,0.00,Wunderground v.1.15,2013-03-29 10:34:00,
2013-03-29 06:39:00,30.8,29.8,30.02,NNW,335,2.0,2.0,96,0.00,,,0.00,Wunderground v.1.15,2013-03-29 10:39:00,
2013-03-29 06:44:00,31.1,29.8,30.02,NW,312,1.0,2.0,95,0.00,,,0.00,Wunderground v.1.15,2013-03-29 10:44:00,
2013-03-29 06:49:00,31.3,29.8,30.03,NW,316,0.0,0.0,94,0.00,,,0.00,Wunderground v.1.15,2013-03-29 10:49:00,
2013-03-29 06:54:00,31.4,29.9,30.02,North,349,0.0,0.0,94,0.00,,,0.00,Wunderground v.1.15,2013-03-29 10:54:00,
2013-03-29 06:59:00,31.6,29.8,30.03,NW,323,1.0,2.0,93,0.00,,,0.00,Wunderground v.1.15,2013-03-29 10:59:00,
2013-03-29 07:04:00,31.8,30.0,30.03,North,350,0.0,2.0,93,0.00,,,0.00,Wunderground v.1.15,2013-03-29 11:04:00,
2013-03-29 07:09:00,32.0,29.9,30.03,WNW,288,1.0,2.0,92,0.00,,,0.00,Wunderground v.1.15,2013-03-29 11:09:00,
2013-03-29 07:14:00,32.1,30.0,30.03,WNW,288,0.0,2.0,92,0.00,,,0.00,Wunderground v.1.15,2013-03-29 11:14:00,
2013-03-29 07:19:00,32.5,30.2,30.03,NW,318,1.0,2.0,91,0.00,,,0.00,Wunderground v.1.15,2013-03-29 11:19:00,
2013-03-29 07:25:00,32.7,30.4,30.03,NW,308,1.0,2.0,91,0.00,,,0.00,Wunderground v.1.15,2013-03-29 11:25:00,
2013-03-29 07:30:00,32.8,30.2,30.03,North,360,1.0,1.0,90,0.00,,,0.00,Wunderground v.1.15,2013-03-29 11:30:00,
2013-03-29 07:35:00,33.1,30.5,30.03,NW,312,0.0,1.0,90,0.00,,,0.00,Wunderground v.1.15,2013-03-29 11:35:00,
2013-03-29 07:40:00,33.3,30.4,30.03,NW,314,3.0,4.0,89,0.00,,,0.00,Wunderground v.1.15,2013-03-29 11:40:00,
2013-03-29 07:45:00,33.5,30.3,30.03,NNW,333,1.0,4.0,88,0.00,,,0.00,Wunderground v.1.15,2013-03-29 11:45:00,
2013-03-29 07:50:00,33.6,30.4,30.03,West,269,2.0,4.0,88,0.00,,,0.00,Wunderground v.1.15,2013-03-29 11:50:00,
2013-03-29 07:55:00,33.7,30.5,30.03,WSW,239,1.0,4.0,88,0.00,,,0.00,Wunderground v.1.15,2013-03-29 11:55:00,
2013-03-29 08:00:00,33.8,30.6,30.03,West,260,0.0,1.0,88,0.00,,,0.00,Wunderground v.1.15,2013-03-29 12:00:00,
2013-03-29 08:05:00,34.0,30.5,30.03,NW,313,2.0,4.0,87,0.00,,,0.00,Wunderground v.1.15,2013-03-29 12:05:00,
2013-03-29 08:10:00,34.0,30.5,30.03,WNW,299,3.0,3.0,87,0.00,,,0.00,Wunderground v.1.15,2013-03-29 12:10:00,
2013-03-29 08:15:00,34.1,30.6,30.03,NW,309,2.0,4.0,87,0.00,,,0.00,Wunderground v.1.15,2013-03-29 12:15:00,
2013-03-29 08:20:00,34.2,30.7,30.03,NW,309,4.0,4.0,87,0.00,,,0.00,Wunderground v.1.15,2013-03-29 12:20:00,
2013-03-29 08:25:00,34.1,30.6,30.03,WNW,298,2.0,6.0,87,0.00,,,0.00,Wunderground v.1.15,2013-03-29 12:25:00,
2013-03-29 08:30:00,34.2,30.7,30.03,WNW,302,1.0,2.0,87,0.00,,,0.00,Wunderground v.1.15,2013-03-29 12:30:00,
2013-03-29 08:35:00,34.3,30.5,30.03,NW,311,0.0,3.0,86,0.00,,,0.00,Wunderground v.1.15,2013-03-29 12:35:00,
2013-03-29 08:40:00,34.4,30.6,30.03,WNW,302,0.0,3.0,86,0.00,,,0.00,Wunderground v.1.15,2013-03-29 12:40:00,
2013-03-29 08:45:00,34.7,30.7,30.03,WSW,246,1.0,3.0,85,0.00,,,0.00,Wunderground v.1.15,2013-03-29 12:45:00,
2013-03-29 08:51:00,34.6,30.6,30.04,WNW,291,1.0,3.0,85,0.00,,,0.00,Wunderground v.1.15,2013-03-29 12:51:00,
2013-03-29 08:55:00,34.5,30.5,30.04,WNW,291,3.0,4.0,85,0.00,,,0.00,Wunderground v.1.15,2013-03-29 12:55:00,
2013-03-29 09:00:00,34.5,30.7,30.04,West,280,1.0,4.0,86,0.00,,,0.00,Wunderground v.1.15,2013-03-29 13:00:00,
2013-03-29 09:06:00,34.5,30.5,30.04,WSW,250,5.0,5.0,85,0.00,,,0.00,Wunderground v.1.15,2013-03-29 13:06:00,
2013-03-29 09:11:00,34.4,30.4,30.04,WSW,245,1.0,6.0,85,0.00,,,0.00,Wunderground v.1.15,2013-03-29 13:11:00,
2013-03-29 09:16:00,34.4,30.4,30.04,NW,314,3.0,6.0,85,0.00,,,0.00,Wunderground v.1.15,2013-03-29 13:16:00,
2013-03-29 09:21:00,34.4,30.4,30.04,NW,325,1.0,6.0,85,0.00,,,0.00,Wunderground v.1.15,2013-03-29 13:21:00,
2013-03-29 09:26:00,34.5,30.5,30.04,WSW,244,1.0,6.0,85,0.00,,,0.00,Wunderground v.1.15,2013-03-29 13:26:00,
2013-03-29 09:31:00,34.6,30.6,30.04,NW,326,1.0,3.0,85,0.00,,,0.00,Wunderground v.1.15,2013-03-29 13:31:00,
2013-03-29 09:36:00,34.9,30.8,30.04,WNW,286,1.0,3.0,85,0.00,,,0.00,Wunderground v.1.15,2013-03-29 13:36:00,
2013-03-29 09:41:00,35.2,30.9,30.04,SSW,199,0.0,3.0,84,0.00,,,0.00,Wunderground v.1.15,2013-03-29 13:41:00,
2013-03-29 09:46:00,35.7,31.3,30.04,SE,125,0.0,3.0,84,0.00,,,0.00,Wunderground v.1.15,2013-03-29 13:46:00,
2013-03-29 09:51:00,36.1,31.1,30.04,SSE,162,1.0,6.0,82,0.00,,,0.00,Wunderground v.1.15,2013-03-29 13:51:00,
2013-03-29 09:56:00,36.4,31.4,30.03,WNW,301,0.0,6.0,82,0.00,,,0.00,Wunderground v.1.15,2013-03-29 13:56:00,
2013-03-29 10:01:00,37.2,31.9,30.03,NW,310,0.0,1.0,81,0.00,,,0.00,Wunderground v.1.15,2013-03-29 14:01:00,
2013-03-29 10:06:00,37.9,32.0,30.03,NW,309,2.0,7.0,79,0.00,,,0.00,Wunderground v.1.15,2013-03-29 14:06:00,
2013-03-29 10:11:00,38.0,32.1,30.03,SE,132,1.0,2.0,79,0.00,,,0.00,Wunderground v.1.15,2013-03-29 14:11:00,
2013-03-29 10:16:00,38.2,31.9,30.03,WNW,298,1.0,6.0,78,0.00,,,0.00,Wunderground v.1.15,2013-03-29 14:16:00,
2013-03-29 10:21:00,38.8,32.5,30.03,West,276,0.0,6.0,78,0.00,,,0.00,Wunderground v.1.15,2013-03-29 14:21:00,
2013-03-29 10:26:00,39.6,33.0,30.03,SW,231,2.0,6.0,77,0.00,,,0.00,Wunderground v.1.15,2013-03-29 14:26:00,
2013-03-29 10:31:00,40.3,33.0,30.03,SSW,195,2.0,6.0,75,0.00,,,0.00,Wunderground v.1.15,2013-03-29 14:31:00,
2013-03-29 10:36:00,40.3,32.7,30.03,SW,236,5.0,7.0,74,0.00,,,0.00,Wunderground v.1.15,2013-03-29 14:36:00,
2013-03-29 10:41:00,39.8,32.5,30.03,NW,311,2.0,6.0,75,0.00,,,0.00,Wunderground v.1.15,2013-03-29 14:41:00,
2013-03-29 10:46:00,39.8,32.5,30.03,NW,314,2.0,6.0,75,0.00,,,0.00,Wunderground v.1.15,2013-03-29 14:46:00,
2013-03-29 10:51:00,40.3,32.7,30.03,NW,317,3.0,3.0,74,0.00,,,0.00,Wunderground v.1.15,2013-03-29 14:51:00,
2013-03-29 10:56:00,40.1,32.5,30.03,NW,305,5.0,5.0,74,0.00,,,0.00,Wunderground v.1.15,2013-03-29 14:56:00,
2013-03-29 11:01:00,40.4,32.8,30.03,NW,322,2.0,3.0,74,0.00,,,0.00,Wunderground v.1.15,2013-03-29 15:01:00,
2013-03-29 11:06:00,40.1,32.5,30.03,NW,324,4.0,6.0,74,0.00,,,0.00,Wunderground v.1.15,2013-03-29 15:06:00,
2013-03-29 11:11:00,40.0,32.4,30.03,WNW,303,2.0,4.0,74,0.00,,,0.00,Wunderground v.1.15,2013-03-29 15:11:00,
2013-03-29 11:17:00,40.2,32.6,30.03,WSW,253,0.0,4.0,74,0.00,,,0.00,Wunderground v.1.15,2013-03-29 15:17:00,
2013-03-29 11:22:00,40.1,32.5,30.03,NNW,347,3.0,8.0,74,0.00,,,0.00,Wunderground v.1.15,2013-03-29 15:22:00,
2013-03-29 11:27:00,40.1,32.5,30.02,NW,307,6.0,9.0,74,0.00,,,0.00,Wunderground v.1.15,2013-03-29 15:27:00,
2013-03-29 11:32:00,40.1,32.5,30.02,NW,326,2.0,6.0,74,0.00,,,0.00,Wunderground v.1.15,2013-03-29 15:32:00,
2013-03-29 11:37:00,40.2,32.2,30.02,NW,320,6.0,8.0,73,0.00,,,0.00,Wunderground v.1.15,2013-03-29 15:37:00,
2013-03-29 11:42:00,40.8,32.5,30.02,NW,323,6.0,6.0,72,0.00,,,0.00,Wunderground v.1.15,2013-03-29 15:42:00,
2013-03-29 11:47:00,40.9,32.2,30.02,West,276,5.0,10.0,71,0.00,,,0.00,Wunderground v.1.15,2013-03-29 15:47:00,
2013-03-29 11:52:00,41.2,32.5,30.02,NNW,332,6.0,9.0,71,0.00,,,0.00,Wunderground v.1.15,2013-03-29 15:52:00,
2013-03-29 11:57:00,41.1,32.1,30.02,NNW,336,2.0,9.0,70,0.00,,,0.00,Wunderground v.1.15,2013-03-29 15:57:00,
2013-03-29 12:02:00,41.2,32.2,30.02,West,269,6.0,8.0,70,0.00,,,0.00,Wunderground v.1.15,2013-03-29 16:02:00,
2013-03-29 12:07:00,41.4,32.0,30.02,WNW,287,8.0,8.0,69,0.00,,,0.00,Wunderground v.1.15,2013-03-29 16:07:00,
2013-03-29 12:12:00,41.0,32.0,30.01,NNW,329,10.0,11.0,70,0.00,,,0.00,Wunderground v.1.15,2013-03-29 16:12:00,
2013-03-29 12:17:00,41.7,31.5,30.01,NW,326,5.0,11.0,67,0.00,,,0.00,Wunderground v.1.15,2013-03-29 16:17:00,
2013-03-29 12:22:00,41.6,31.4,30.01,West,275,5.0,9.0,67,0.00,,,0.00,Wunderground v.1.15,2013-03-29 16:22:00,
2013-03-29 12:27:00,41.9,31.7,30.01,West,266,6.0,15.0,67,0.00,,,0.00,Wunderground v.1.15,2013-03-29 16:27:00,
2013-03-29 12:32:00,41.6,31.4,30.01,NW,319,3.0,7.0,67,0.00,,,0.00,Wunderground v.1.15,2013-03-29 16:32:00,
2013-03-29 12:37:00,41.3,31.5,30.01,WSW,247,3.0,9.0,68,0.00,,,0.00,Wunderground v.1.15,2013-03-29 16:37:00,
2013-03-29 12:42:00,41.2,31.4,30.01,West,267,3.0,9.0,68,0.00,,,0.00,Wunderground v.1.15,2013-03-29 16:42:00,
2013-03-29 12:47:00,41.4,31.6,30.01,NW,305,3.0,9.0,68,0.00,,,0.00,Wunderground v.1.15,2013-03-29 16:47:00,
2013-03-29 12:52:00,41.3,31.2,30.01,NW,311,7.0,8.0,67,0.00,,,0.00,Wunderground v.1.15,2013-03-29 16:52:00,
2013-03-29 12:57:00,41.3,30.8,30.01,NW,311,5.0,8.0,66,0.00,,,0.00,Wunderground v.1.15,2013-03-29 16:57:00,
2013-03-29 13:03:00,41.2,30.7,30.00,NW,319,6.0,8.0,66,0.00,,,0.00,Wunderground v.1.15,2013-03-29 17:03:00,
2013-03-29 13:08:00,41.2,31.1,30.00,NW,323,3.0,8.0,67,0.00,,,0.00,Wunderground v.1.15,2013-03-29 17:08:00,
2013-03-29 13:13:00,40.8,30.7,30.00,NNW,329,3.0,8.0,67,0.00,,,0.00,Wunderground v.1.15,2013-03-29 17:13:00,
2013-03-29 13:18:00,40.7,31.3,30.00,NNW,329,2.0,8.0,69,0.00,,,0.00,Wunderground v.1.15,2013-03-29 17:18:00,
2013-03-29 13:23:00,40.4,31.0,30.00,NW,316,2.0,7.0,69,0.00,,,0.00,Wunderground v.1.15,2013-03-29 17:23:00,
2013-03-29 13:28:00,40.2,31.2,30.00,WNW,296,3.0,7.0,70,0.00,,,0.00,Wunderground v.1.15,2013-03-29 17:28:00,
2013-03-29 13:33:00,40.8,31.8,30.00,NW,322,0.0,3.0,70,0.00,,,0.00,Wunderground v.1.15,2013-03-29 17:33:00,
2013-03-29 13:38:00,41.0,31.6,29.99,NW,305,3.0,4.0,69,0.00,,,0.00,Wunderground v.1.15,2013-03-29 17:38:00,
2013-03-29 13:44:00,41.3,31.9,29.99,North,349,1.0,6.0,69,0.00,,,0.00,Wunderground v.1.15,2013-03-29 17:44:00,
2013-03-29 13:49:00,42.3,32.1,29.99,SSE,157,0.0,2.0,67,0.00,,,0.00,Wunderground v.1.15,2013-03-29 17:49:00,
2013-03-29 13:54:00,42.2,32.0,29.99,NW,307,3.0,4.0,67,0.00,,,0.00,Wunderground v.1.15,2013-03-29 17:54:00,
2013-03-29 13:59:00,42.1,32.3,29.99,SSE,149,0.0,1.0,68,0.00,,,0.00,Wunderground v.1.15,2013-03-29 17:59:00,
2013-03-29 14:04:00,42.0,31.5,29.99,NW,314,2.0,5.0,66,0.00,,,0.00,Wunderground v.1.15,2013-03-29 18:04:00,
2013-03-29 14:09:00,40.3,31.6,29.99,West,266,3.0,3.0,71,0.00,,,0.00,Wunderground v.1.15,2013-03-29 18:09:00,
2013-03-29 14:14:00,39.1,31.8,29.99,WNW,283,1.0,5.0,75,0.00,,,0.00,Wunderground v.1.15,2013-03-29 18:14:00,
2013-03-29 14:19:00,38.3,32.0,29.99,WNW,285,2.0,3.0,78,0.00,,,0.00,Wunderground v.1.15,2013-03-29 18:19:00,
2013-03-29 14:24:00,38.0,33.0,29.99,WNW,295,2.0,5.0,82,0.00,,,0.00,Wunderground v.1.15,2013-03-29 18:24:00,
2013-03-29 14:29:00,38.2,33.5,29.98,WNW,285,1.0,3.0,83,0.00,,,0.00,Wunderground v.1.15,2013-03-29 18:29:00,
2013-03-29 14:34:00,38.6,33.6,29.98,WNW,301,2.0,4.0,82,0.00,,,0.01,Wunderground v.1.15,2013-03-29 18:34:00,
2013-03-29 14:39:00,38.9,33.6,29.98,WNW,294,2.0,2.0,81,0.00,,,0.01,Wunderground v.1.15,2013-03-29 18:39:00,
2013-03-29 14:44:00,39.5,33.8,29.98,NNW,327,0.0,3.0,80,0.00,,,0.01,Wunderground v.1.15,2013-03-29 18:44:00,
2013-03-29 14:49:00,40.0,33.7,29.98,North,11,0.0,1.0,78,0.04,,,0.02,Wunderground v.1.15,2013-03-29 18:49:00,
2013-03-29 14:54:00,40.1,33.5,29.98,NW,314,2.0,4.0,77,0.04,,,0.02,Wunderground v.1.15,2013-03-29 18:54:00,
2013-03-29 14:59:00,40.0,33.0,29.98,NNW,330,5.0,5.0,76,0.04,,,0.02,Wunderground v.1.15,2013-03-29 18:59:00,
2013-03-29 15:04:00,39.5,32.9,29.98,WNW,290,5.0,8.0,77,0.00,,,0.02,Wunderground v.1.15,2013-03-29 19:04:00,
2013-03-29 15:09:00,38.8,32.8,29.98,NW,315,4.0,5.0,79,0.00,,,0.02,Wunderground v.1.15,2013-03-29 19:09:00,
2013-03-29 15:14:00,38.0,33.0,29.98,NW,311,2.0,7.0,82,0.00,,,0.02,Wunderground v.1.15,2013-03-29 19:14:00,
2013-03-29 15:20:00,37.3,32.9,29.98,NNW,348,0.0,2.0,84,0.00,,,0.02,Wunderground v.1.15,2013-03-29 19:20:00,
2013-03-29 15:25:00,37.1,33.3,29.98,NNE,25,0.0,2.0,86,0.00,,,0.02,Wunderground v.1.15,2013-03-29 19:25:00,
2013-03-29 15:30:00,37.3,33.8,29.98,NNE,14,1.0,1.0,87,0.00,,,0.03,Wunderground v.1.15,2013-03-29 19:30:00,
2013-03-29 15:35:00,37.6,34.1,29.98,SSE,162,0.0,2.0,87,0.00,,,0.03,Wunderground v.1.15,2013-03-29 19:35:00,
2013-03-29 15:40:00,37.9,34.4,29.98,WNW,283,1.0,2.0,87,0.00,,,0.03,Wunderground v.1.15,2013-03-29 19:40:00,
2013-03-29 15:45:00,38.0,34.5,29.98,NW,322,2.0,5.0,87,0.00,,,0.03,Wunderground v.1.15,2013-03-29 19:45:00,
2013-03-29 15:50:00,37.9,34.4,29.98,West,281,4.0,4.0,87,0.00,,,0.03,Wunderground v.1.15,2013-03-29 19:50:00,
2013-03-29 15:55:00,38.0,34.8,29.98,WNW,302,6.0,6.0,88,0.00,,,0.03,Wunderground v.1.15,2013-03-29 19:55:00,
2013-03-29 16:00:00,37.8,34.3,29.98,NW,307,5.0,5.0,87,0.00,,,0.03,Wunderground v.1.15,2013-03-29 20:00:00,
2013-03-29 16:05:00,37.8,34.3,29.98,West,281,4.0,7.0,87,0.00,,,0.03,Wunderground v.1.15,2013-03-29 20:05:00,
2013-03-29 16:10:00,37.7,33.6,29.98,WNW,297,5.0,5.0,85,0.00,,,0.03,Wunderground v.1.15,2013-03-29 20:10:00,
2013-03-29 16:15:00,37.6,33.5,29.98,NE,37,2.0,8.0,85,0.00,,,0.03,Wunderground v.1.15,2013-03-29 20:15:00,
2013-03-29 16:20:00,37.5,33.1,29.98,NW,312,0.0,3.0,84,0.00,,,0.03,Wunderground v.1.15,2013-03-29 20:20:00,
2013-03-29 16:25:00,37.7,33.3,29.98,North,355,1.0,3.0,84,0.00,,,0.03,Wunderground v.1.15,2013-03-29 20:25:00,
2013-03-29 16:30:00,38.1,33.4,29.97,West,281,2.0,4.0,83,0.00,,,0.03,Wunderground v.1.15,2013-03-29 20:30:00,
2013-03-29 16:35:00,38.5,33.2,29.98,NW,309,6.0,7.0,81,0.00,,,0.03,Wunderground v.1.15,2013-03-29 20:35:00,
2013-03-29 16:40:00,38.7,33.4,29.98,WNW,303,1.0,3.0,81,0.00,,,0.03,Wunderground v.1.15,2013-03-29 20:40:00,
2013-03-29 16:45:00,38.9,32.6,29.98,NW,314,5.0,7.0,78,0.00,,,0.03,Wunderground v.1.15,2013-03-29 20:45:00,
2013-03-29 16:50:00,38.8,32.2,29.98,NW,314,2.0,7.0,77,0.00,,,0.03,Wunderground v.1.15,2013-03-29 20:50:00,
2013-03-29 16:55:00,38.8,31.9,29.97,WNW,301,6.0,7.0,76,0.00,,,0.03,Wunderground v.1.15,2013-03-29 20:55:00,
2013-03-29 17:00:00,39.0,32.4,29.98,WNW,283,4.0,5.0,77,0.00,,,0.03,Wunderground v.1.15,2013-03-29 21:00:00,
2013-03-29 17:05:00,39.0,31.4,29.98,NW,305,2.0,8.0,74,0.00,,,0.03,Wunderground v.1.15,2013-03-29 21:05:00,
2013-03-29 17:10:00,39.1,31.8,29.98,NNE,19,2.0,6.0,75,0.00,,,0.03,Wunderground v.1.15,2013-03-29 21:10:00,
2013-03-29 17:15:00,38.9,31.0,29.98,NW,312,4.0,8.0,73,0.00,,,0.03,Wunderground v.1.15,2013-03-29 21:15:00,
2013-03-29 17:20:00,38.8,31.2,29.98,NW,326,4.0,7.0,74,0.00,,,0.03,Wunderground v.1.15,2013-03-29 21:20:00,
2013-03-29 17:25:00,38.8,30.9,29.97,West,269,2.0,9.0,73,0.00,,,0.03,Wunderground v.1.15,2013-03-29 21:25:00,
2013-03-29 17:30:00,38.9,31.3,29.97,NW,305,5.0,6.0,74,0.00,,,0.03,Wunderground v.1.15,2013-03-29 21:30:00,
2013-03-29 17:35:00,39.0,31.4,29.97,NW,323,3.0,6.0,74,0.00,,,0.03,Wunderground v.1.15,2013-03-29 21:35:00,
2013-03-29 17:40:00,39.0,31.4,29.97,NW,310,5.0,8.0,74,0.00,,,0.03,Wunderground v.1.15,2013-03-29 21:40:00,
2013-03-29 17:45:00,39.2,31.3,29.97,WNW,301,5.0,8.0,73,0.00,,,0.03,Wunderground v.1.15,2013-03-29 21:45:00,
2013-03-29 17:50:00,39.5,31.2,29.97,West,280,7.0,7.0,72,0.00,,,0.03,Wunderground v.1.15,2013-03-29 21:50:00,
2013-03-29 17:55:00,39.3,31.4,29.98,NW,307,4.0,7.0,73,0.00,,,0.03,Wunderground v.1.15,2013-03-29 21:55:00,
2013-03-29 18:00:00,39.1,31.2,29.98,West,276,2.0,4.0,73,0.00,,,0.03,Wunderground v.1.15,2013-03-29 22:00:00,
2013-03-29 18:05:00,38.8,30.9,29.98,West,281,4.0,8.0,73,0.00,,,0.03,Wunderground v.1.15,2013-03-29 22:05:00,
2013-03-29 18:10:00,38.7,31.1,29.98,WSW,240,2.0,3.0,74,0.00,,,0.03,Wunderground v.1.15,2013-03-29 22:10:00,
2013-03-29 18:15:00,38.6,31.4,29.98,NW,305,1.0,3.0,75,0.00,,,0.03,Wunderground v.1.15,2013-03-29 22:15:00,
2013-03-29 18:20:00,38.5,31.3,29.98,WNW,298,0.0,1.0,75,0.00,,,0.03,Wunderground v.1.15,2013-03-29 22:20:00,
2013-03-29 18:25:00,38.4,31.2,29.98,WNW,282,0.0,4.0,75,0.00,,,0.03,Wunderground v.1.15,2013-03-29 22:25:00,
2013-03-29 18:30:00,38.3,31.1,29.98,NW,316,3.0,3.0,75,0.00,,,0.03,Wunderground v.1.15,2013-03-29 22:30:00,
2013-03-29 18:35:00,38.1,31.2,29.98,NW,305,2.0,4.0,76,0.00,,,0.03,Wunderground v.1.15,2013-03-29 22:35:00,
2013-03-29 18:40:00,37.8,31.2,29.99,WNW,289,4.0,6.0,77,0.00,,,0.03,Wunderground v.1.15,2013-03-29 22:40:00,
2013-03-29 18:45:00,37.5,31.6,29.99,WNW,295,4.0,8.0,79,0.00,,,0.03,Wunderground v.1.15,2013-03-29 22:45:00,
2013-03-29 18:50:00,36.8,31.8,29.99,West,280,3.0,4.0,82,0.00,,,0.03,Wunderground v.1.15,2013-03-29 22:50:00,
2013-03-29 18:56:00,36.0,31.9,29.99,NW,312,0.0,5.0,85,0.00,,,0.04,Wunderground v.1.15,2013-03-29 22:56:00,
2013-03-29 19:02:00,35.6,31.8,29.99,NW,314,3.0,3.0,86,0.00,,,0.04,Wunderground v.1.15,2013-03-29 23:02:00,
2013-03-29 19:07:00,35.3,31.8,30.00,NW,304,6.0,6.0,87,0.00,,,0.04,Wunderground v.1.15,2013-03-29 23:07:00,
2013-03-29 19:12:00,35.1,31.9,30.00,NW,306,4.0,4.0,88,0.00,,,0.04,Wunderground v.1.15,2013-03-29 23:12:00,
2013-03-29 19:17:00,34.9,32.0,30.00,NW,322,1.0,7.0,89,0.00,,,0.04,Wunderground v.1.15,2013-03-29 23:17:00,
2013-03-29 19:22:00,34.6,32.0,30.00,NW,319,2.0,3.0,90,0.00,,,0.04,Wunderground v.1.15,2013-03-29 23:22:00,
2013-03-29 19:27:00,34.4,31.8,30.00,NNW,338,0.0,4.0,90,0.00,,,0.04,Wunderground v.1.15,2013-03-29 23:27:00,
2013-03-29 19:32:00,34.3,31.9,30.00,NW,319,0.0,1.0,91,0.00,,,0.04,Wunderground v.1.15,2013-03-29 23:32:00,
2013-03-29 19:37:00,34.1,31.7,30.00,NW,321,0.0,1.0,91,0.00,,,0.04,Wunderground v.1.15,2013-03-29 23:37:00,
2013-03-29 19:42:00,33.9,31.8,30.00,NW,321,0.0,0.0,92,0.00,,,0.04,Wunderground v.1.15,2013-03-29 23:42:00,
2013-03-29 19:47:00,33.7,31.6,30.00,NW,322,0.0,0.0,92,0.00,,,0.04,Wunderground v.1.15,2013-03-29 23:47:00,
2013-03-29 19:52:00,33.5,31.7,30.00,NW,322,0.0,0.0,93,0.00,,,0.04,Wunderground v.1.15,2013-03-29 23:52:00,
2013-03-29 19:57:00,33.3,31.5,30.01,NW,322,0.0,0.0,93,0.00,,,0.04,Wunderground v.1.15,2013-03-29 23:57:00,
2013-03-29 20:02:00,33.1,31.3,30.01,NW,322,0.0,0.0,93,0.00,,,0.04,Wunderground v.1.15,2013-03-30 00:02:00,
2013-03-29 20:07:00,32.9,31.1,30.01,NW,322,0.0,0.0,93,0.00,,,0.04,Wunderground v.1.15,2013-03-30 00:07:00,
2013-03-29 20:12:00,32.8,31.0,30.01,NW,322,0.0,0.0,93,0.00,,,0.04,Wunderground v.1.15,2013-03-30 00:12:00,
2013-03-29 20:17:00,32.7,31.2,30.01,NW,320,0.0,0.0,94,0.00,,,0.04,Wunderground v.1.15,2013-03-30 00:17:00,
2013-03-29 20:22:00,32.7,31.2,30.01,NW,320,0.0,0.0,94,0.00,,,0.04,Wunderground v.1.15,2013-03-30 00:22:00,
2013-03-29 20:27:00,32.7,31.2,30.01,NW,307,0.0,0.0,94,0.00,,,0.04,Wunderground v.1.15,2013-03-30 00:27:00,
2013-03-29 20:33:00,32.6,31.1,30.02,NW,307,0.0,0.0,94,0.00,,,0.04,Wunderground v.1.15,2013-03-30 00:33:00,
2013-03-29 20:38:00,32.6,31.1,30.01,NW,306,0.0,0.0,94,0.00,,,0.04,Wunderground v.1.15,2013-03-30 00:38:00,
2013-03-29 20:43:00,32.4,30.9,30.01,North,357,0.0,0.0,94,0.00,,,0.04,Wunderground v.1.15,2013-03-30 00:43:00,
2013-03-29 20:48:00,32.4,31.1,30.02,ENE,58,0.0,1.0,95,0.00,,,0.04,Wunderground v.1.15,2013-03-30 00:48:00,
2013-03-29 20:53:00,32.4,31.1,30.02,ENE,58,0.0,0.0,95,0.00,,,0.04,Wunderground v.1.15,2013-03-30 00:53:00,
2013-03-29 20:58:00,32.3,31.0,30.02,ENE,58,0.0,0.0,95,0.00,,,0.04,Wunderground v.1.15,2013-03-30 00:58:00,
2013-03-29 21:03:00,32.3,31.0,30.02,ENE,58,0.0,0.0,95,0.00,,,0.04,Wunderground v.1.15,2013-03-30 01:03:00,
2013-03-29 21:08:00,32.3,31.0,30.02,ENE,58,0.0,0.0,95,0.00,,,0.04,Wunderground v.1.15,2013-03-30 01:08:00,
2013-03-29 21:13:00,32.3,31.0,30.02,ENE,58,0.0,0.0,95,0.00,,,0.04,Wunderground v.1.15,2013-03-30 01:13:00,
2013-03-29 21:18:00,32.2,30.9,30.02,ENE,58,0.0,0.0,95,0.00,,,0.04,Wunderground v.1.15,2013-03-30 01:18:00,
2013-03-29 21:23:00,32.1,30.8,30.02,ENE,58,0.0,0.0,95,0.00,,,0.04,Wunderground v.1.15,2013-03-30 01:23:00,
2013-03-29 21:28:00,32.1,30.8,30.02,ENE,58,0.0,0.0,95,0.00,,,0.04,Wunderground v.1.15,2013-03-30 01:28:00,
2013-03-29 21:33:00,32.1,30.8,30.02,ENE,58,0.0,0.0,95,0.00,,,0.04,Wunderground v.1.15,2013-03-30 01:33:00,
2013-03-29 21:38:00,32.0,30.7,30.02,ENE,58,0.0,0.0,95,0.00,,,0.04,Wunderground v.1.15,2013-03-30 01:38:00,
2013-03-29 21:43:00,31.9,30.6,30.03,ENE,58,0.0,0.0,95,0.00,,,0.04,Wunderground v.1.15,2013-03-30 01:43:00,
2013-03-29 21:48:00,31.8,30.5,30.03,ENE,58,0.0,0.0,95,0.00,,,0.04,Wunderground v.1.15,2013-03-30 01:48:00,
2013-03-29 21:53:00,31.8,30.5,30.03,ENE,58,0.0,0.0,95,0.00,,,0.04,Wunderground v.1.15,2013-03-30 01:53:00,
2013-03-29 21:59:00,31.8,30.5,30.02,ENE,58,0.0,0.0,95,0.00,,,0.04,Wunderground v.1.15,2013-03-30 01:59:00,
2013-03-29 22:04:00,31.8,30.5,30.03,ENE,58,0.0,0.0,95,0.00,,,0.04,Wunderground v.1.15,2013-03-30 02:04:00,
2013-03-29 22:09:00,31.8,30.5,30.03,ENE,58,0.0,0.0,95,0.00,,,0.04,Wunderground v.1.15,2013-03-30 02:09:00,
2013-03-29 22:14:00,31.9,30.9,30.03,ENE,58,0.0,0.0,96,0.00,,,0.04,Wunderground v.1.15,2013-03-30 02:14:00,
2013-03-29 22:19:00,31.9,30.9,30.03,ENE,58,0.0,0.0,96,0.00,,,0.04,Wunderground v.1.15,2013-03-30 02:19:00,
2013-03-29 22:24:00,31.9,30.9,30.03,ENE,58,0.0,0.0,96,0.00,,,0.04,Wunderground v.1.15,2013-03-30 02:24:00,
2013-03-29 22:29:00,31.8,30.8,30.02,ENE,58,0.0,0.0,96,0.00,,,0.04,Wunderground v.1.15,2013-03-30 02:29:00,
2013-03-29 22:34:00,31.7,30.7,30.02,ENE,58,0.0,0.0,96,0.00,,,0.04,Wunderground v.1.15,2013-03-30 02:34:00,
2013-03-29 22:39:00,31.7,30.7,30.02,ENE,58,0.0,0.0,96,0.00,,,0.04,Wunderground v.1.15,2013-03-30 02:39:00,
2013-03-29 22:44:00,31.6,30.6,30.02,ENE,58,0.0,0.0,96,0.00,,,0.04,Wunderground v.1.15,2013-03-30 02:44:00,
2013-03-29 22:49:00,31.7,30.7,30.02,ENE,58,0.0,0.0,96,0.00,,,0.04,Wunderground v.1.15,2013-03-30 02:49:00,
2013-03-29 22:54:00,31.6,30.6,30.02,ENE,58,0.0,0.0,96,0.00,,,0.04,Wunderground v.1.15,2013-03-30 02:54:00,
2013-03-29 22:59:00,31.7,30.7,30.02,ENE,58,0.0,0.0,96,0.00,,,0.04,Wunderground v.1.15,2013-03-30 02:59:00,
2013-03-29 23:04:00,31.7,30.7,30.02,ENE,58,0.0,0.0,96,0.00,,,0.04,Wunderground v.1.15,2013-03-30 03:04:00,
2013-03-29 23:09:00,31.6,30.6,30.02,ENE,58,0.0,0.0,96,0.00,,,0.04,Wunderground v.1.15,2013-03-30 03:09:00,
2013-03-29 23:14:00,31.6,30.6,30.02,ENE,58,0.0,0.0,96,0.00,,,0.04,Wunderground v.1.15,2013-03-30 03:14:00,
2013-03-29 23:19:00,31.6,30.6,30.02,ENE,58,0.0,0.0,96,0.00,,,0.04,Wunderground v.1.15,2013-03-30 03:19:00,
2013-03-29 23:24:00,31.7,30.7,30.02,ENE,58,0.0,0.0,96,0.00,,,0.04,Wunderground v.1.15,2013-03-30 03:24:00,
2013-03-29 23:29:00,31.7,30.7,30.02,ENE,58,0.0,0.0,96,0.00,,,0.04,Wunderground v.1.15,2013-03-30 03:29:00,
2013-03-29 23:34:00,31.6,30.6,30.02,ENE,58,0.0,0.0,96,0.00,,,0.04,Wunderground v.1.15,2013-03-30 03:34:00,
2013-03-29 23:39:00,31.4,30.4,30.02,ENE,58,0.0,0.0,96,0.00,,,0.04,Wunderground v.1.15,2013-03-30 03:39:00,
2013-03-29 23:44:00,31.4,30.4,30.02,ENE,58,0.0,0.0,96,0.00,,,0.04,Wunderground v.1.15,2013-03-30 03:44:00,
2013-03-29 23:49:00,31.3,30.3,30.02,ENE,58,0.0,0.0,96,0.00,,,0.04,Wunderground v.1.15,2013-03-30 03:49:00,
2013-03-29 23:54:00,31.2,30.2,30.02,ENE,58,0.0,0.0,96,0.00,,,0.04,Wunderground v.1.15,2013-03-30 03:54:00,
2013-03-29 23:59:00,31.1,30.1,30.02,ENE,58,0.0,0.0,96,0.00,,,0.04,Wunderground v.1.15,2013-03-30 03:59:00,